METAR Data
IDs: Format: Raw Decoded Include TAF

Data at: 0512 UTC 20 Oct 2018

PAFS 200501Z AUTO 30004KT 10SM -RA FEW023 OVC030 02/01 A2923 RMK AO2 SLP916 P0001 T00170006 FZRANO
PAFS 200455Z AUTO 30004KT 10SM -RA FEW023 OVC030 02/01 A2923 RMK AO2 P0001 FZRANO
PAFS 200401Z AUTO 31005KT 10SM -RA BKN021 OVC026 02/01 A2921 RMK AO2 SLP910 P0000 T00220006 FZRANO
PAFS 200301Z AUTO 32005KT 10SM -RA OVC023 03/M01 A2919 RMK AO2 RAB0212 SLP905 P0000 60000 T00281006 51004
PAFS 200201Z AUTO 03004KT 10SM OVC027 04/M01 A2919 RMK AO2 SLP905 T00391006
PAFS 200151Z AUTO 03007KT 10SM OVC029 04/M01 A2919 RMK AO2
PAFS 200101Z AUTO 06004KT 10SM OVC033 04/M01 A2919 RMK AO2 SLP903 T00391011
PAFS 200001Z AUTO 03008KT 10SM OVC041 04/02 A2918 RMK AO2 SLP901 T00390017 10039 21017 58024
PAFS 192301Z AUTO 00000KT 10SM FEW047 02/01 A2918 RMK AO2 SLP901 T00220006 FZRANO
PAFS 192201Z AUTO 00000KT 10SM CLR 00/M01 A2920 RMK AO2 SLP909 T00001011 FZRANO
PAFS 192101Z AUTO 00000KT 10SM CLR 00/M01 A2924 RMK AO2 SLP921 T00001011 56036 FZRANO
PAFS 192001Z AUTO 00000KT 10SM CLR M01/M01 A2925 RMK AO2 SLP926 T10061011 FZRANO
PAFS 191901Z AUTO 17003KT 10SM CLR M01/M02 A2928 RMK AO2 SLP937 T10111022 FZRANO
PAFS 191801Z AUTO 02005KT 10SM CLR 00/M01 A2931 RMK AO2 SLP947 T00001011 10006 21028 56044 FZRANO
PAFS 191701Z AUTO 00000KT 10SM CLR M02/M03 A2936 RMK AO2 SLP963 T10221028 FZRANO
PAFS 191601Z AUTO 00000KT 10SM CLR M02/M02 A2939 RMK AO2 SLP973 T10171022 FZRANO
PAFS 191501Z AUTO 07005KT 10SM CLR M01/M02 A2945 RMK AO2 SLP992 T10111017 58044 FZRANO
PAFS 191401Z AUTO 05006KT 10SM CLR M01/M01 A2949 RMK AO2 SLP007 T10061006 FZRANO
PAFS 191301Z AUTO 03006KT 10SM CLR M01/M01 A2955 RMK AO2 SLP027 T10061006 FZRANO
PAFS 191201Z AUTO 04005KT 10SM CLR 01/00 A2959 RMK AO2 SLP040 T00060000 10028 20006 58032 FZRANO
PAFS 191101Z AUTO 05006KT 10SM CLR 01/01 A2962 RMK AO2 SLP051 T00110006 FZRANO
PAFS 191001Z AUTO 03004KT 10SM CLR 02/01 A2966 RMK AO2 SLP063 T00170006 FZRANO
PAFS 190901Z AUTO 07006KT 10SM CLR 01/00 A2970 RMK AO2 SLP078 T00110000 400110011 57016 FZRANO
PAFS 190801Z AUTO 06008KT 10SM CLR 02/01 A2972 RMK AO2 SLP085 T00220006 FZRANO
PAFS 190701Z AUTO 05007KT 10SM CLR 02/01 A2973 RMK AO2 SLP090 T00220006 FZRANO
PAFS 190601Z AUTO 05006KT 10SM CLR 03/01 A2975 RMK AO2 SLP095 T00280006 10094 20028 58005
PAFS 190501Z AUTO 06008KT 10SM CLR 03/01 A2977 RMK AO2 SLP100 T00330011
PAFS 190401Z AUTO 08005KT 10SM CLR 04/02 A2977 RMK AO2 SLP102 T00440017
PAFS 190301Z AUTO 07007KT 10SM CLR 06/02 A2978 RMK AO2 SLP105 T00560017 56007
PAFS 190201Z AUTO 06006KT 10SM CLR 08/02 A2978 RMK AO2 SLP105 T00830022
PAFS 190101Z AUTO 08006KT 10SM FEW120 09/02 A2978 RMK AO2 SLP106 T00890022
PAFS 190001Z AUTO 07008KT 10SM CLR 09/02 A2979 RMK AO2 SLP107 T00940022 10094 21006 58001
PAFS 182301Z AUTO 06008KT 10SM CLR 09/03 A2980 RMK AO2 SLP112 T00890028
PAFS 182201Z AUTO 06008KT 10SM CLR 07/03 A2980 RMK AO2 SLP114 T00720033
PAFS 182101Z AUTO 06009KT 10SM CLR 05/03 A2981 RMK AO2 SLP115 T00500028 53013
PAFS 182001Z AUTO 05006KT 10SM CLR 04/04 A2980 RMK AO2 SLP114 T00390039
PAFS 181901Z AUTO 06006KT 10SM CLR 00/00 A2979 RMK AO2 SLP110 T00000000 FZRANO
PAFS 181801Z AUTO 06005KT 10SM CLR M01/M01 A2978 RMK AO2 SLP105 T10061006 10011 21011 53010 FZRANO